createdAt,value
2018-12-19T00:01:14.382Z,15.37
2018-12-19T00:03:42.914Z,15.63
2018-12-19T00:06:11.261Z,15.60
2018-12-19T00:08:39.822Z,15.57
2018-12-19T00:11:08.158Z,15.60
2018-12-19T00:13:36.464Z,15.53
2018-12-19T00:16:05.004Z,16.47
2018-12-19T00:18:33.312Z,14.87
2018-12-19T00:21:01.649Z,14.17
2018-12-19T00:23:30.598Z,15.27
2018-12-19T00:25:58.917Z,14.20
2018-12-19T00:28:27.356Z,16.37
2018-12-19T00:30:55.895Z,16.40
2018-12-19T00:33:24.266Z,15.17
2018-12-19T00:35:52.760Z,15.17
2018-12-19T00:38:21.179Z,16.33
2018-12-19T00:40:49.557Z,15.50
2018-12-19T00:43:17.907Z,14.70
2018-12-19T00:45:46.546Z,16.20
2018-12-19T00:48:14.896Z,15.30
2018-12-19T00:50:43.224Z,15.73
2018-12-19T00:53:12.049Z,15.20
2018-12-19T00:55:40.412Z,15.63
2018-12-19T00:58:08.792Z,16.77
2018-12-19T01:00:37.488Z,17.33
2018-12-19T01:03:05.781Z,16.93
2018-12-19T01:05:34.140Z,16.93
2018-12-19T01:08:02.544Z,16.33
2018-12-19T01:10:30.972Z,15.63
2018-12-19T01:12:59.341Z,16.37
2018-12-19T01:15:28.212Z,16.03
2018-12-19T01:17:56.541Z,16.13
2018-12-19T01:20:25.029Z,15.23
2018-12-19T01:22:53.672Z,15.33
2018-12-19T01:25:22.185Z,14.33
2018-12-19T01:27:50.615Z,15.90
2018-12-19T01:30:19.355Z,15.07
2018-12-19T01:32:47.731Z,14.70
2018-12-19T01:35:16.102Z,15.40
2018-12-19T01:37:44.694Z,14.67
2018-12-19T01:40:13.031Z,14.43
2018-12-19T01:42:41.406Z,14.63
2018-12-19T01:45:10.137Z,14.23
2018-12-19T01:47:38.477Z,13.67
2018-12-19T01:50:07.002Z,14.50
2018-12-19T01:52:35.503Z,13.53
2018-12-19T01:55:03.905Z,14.20
2018-12-19T01:57:32.295Z,13.43
2018-12-19T02:00:00.885Z,13.80
2018-12-19T02:02:29.206Z,13.33
2018-12-19T02:04:57.770Z,14.80
2018-12-19T02:07:26.452Z,14.50
2018-12-19T02:09:54.804Z,13.83
2018-12-19T02:12:23.153Z,13.63
2018-12-19T02:14:51.548Z,13.23
2018-12-19T02:17:19.972Z,13.03
2018-12-19T02:19:48.358Z,13.57
2018-12-19T02:22:16.895Z,13.37
2018-12-19T02:24:45.234Z,15.10
2018-12-19T02:27:13.576Z,12.93
2018-12-19T02:29:41.977Z,13.90
2018-12-19T02:32:10.303Z,13.70
2018-12-19T02:34:38.766Z,13.03
2018-12-19T02:37:07.172Z,12.97
2018-12-19T02:39:36.291Z,12.93
2018-12-19T02:42:03.839Z,13.83
2018-12-19T02:44:32.344Z,13.20
2018-12-19T02:47:00.767Z,12.67
2018-12-19T02:49:29.182Z,13.00
2018-12-19T02:51:57.861Z,13.43
2018-12-19T02:54:26.212Z,12.33
2018-12-19T02:56:54.524Z,13.37
2018-12-19T02:59:23.053Z,14.43
2018-12-19T03:01:51.431Z,13.17
2018-12-19T03:04:19.766Z,13.77
2018-12-19T03:06:48.193Z,12.80
2018-12-19T03:09:16.528Z,13.57
2018-12-19T03:11:44.890Z,13.20
2018-12-19T03:14:13.300Z,14.20
2018-12-19T03:16:41.697Z,13.30
2018-12-19T03:19:10.006Z,14.57
2018-12-19T03:21:38.701Z,14.27
2018-12-19T03:24:07.064Z,13.23
2018-12-19T03:26:35.422Z,13.63
2018-12-19T03:29:04.129Z,12.40
2018-12-19T03:31:32.481Z,14.50
2018-12-19T03:34:00.841Z,12.10
2018-12-19T03:36:29.584Z,13.43
2018-12-19T03:38:57.978Z,14.27
2018-12-19T03:41:26.294Z,12.67
2018-12-19T03:43:54.744Z,12.47
2018-12-19T03:46:23.119Z,13.53
2018-12-19T03:48:56.631Z,13.43
2018-12-19T03:51:25.161Z,12.40
2018-12-19T03:53:53.513Z,12.67
2018-12-19T03:56:22.304Z,12.10
2018-12-19T03:58:50.810Z,12.53
2018-12-19T04:01:19.100Z,12.63
2018-12-19T04:03:47.742Z,11.97
2018-12-19T04:06:16.574Z,12.97
2018-12-19T04:08:44.890Z,12.00
2018-12-19T04:11:13.494Z,11.83
2018-12-19T04:13:41.856Z,11.20
2018-12-19T04:16:10.206Z,11.70
2018-12-19T04:18:39.380Z,12.17
2018-12-19T04:21:07.739Z,12.47
2018-12-19T04:23:36.112Z,13.80
2018-12-19T04:26:04.778Z,11.37
2018-12-19T04:28:33.182Z,12.37
2018-12-19T04:31:01.502Z,13.30
2018-12-19T04:33:30.246Z,13.13
2018-12-19T04:35:58.571Z,12.30
2018-12-19T04:38:26.940Z,12.13
2018-12-19T04:40:55.594Z,12.53
2018-12-19T04:43:23.934Z,12.33
2018-12-19T04:45:52.418Z,14.10
2018-12-19T04:48:20.964Z,12.67
2018-12-19T04:50:49.260Z,12.27
2018-12-19T04:53:17.588Z,13.03
2018-12-19T04:55:46.415Z,12.83
2018-12-19T04:58:14.813Z,13.20
2018-12-19T05:00:43.142Z,13.03
2018-12-19T05:03:11.882Z,13.57
2018-12-19T05:05:40.208Z,13.53
2018-12-19T05:08:08.631Z,13.10
2018-12-19T05:10:37.459Z,13.10
2018-12-19T05:13:05.839Z,12.77
2018-12-19T05:15:34.627Z,12.93
2018-12-19T05:18:03.357Z,13.40
2018-12-19T05:20:31.684Z,14.07
2018-12-19T05:23:00.062Z,14.77
2018-12-19T05:25:28.468Z,13.33
2018-12-19T05:27:56.821Z,12.20
2018-12-19T05:30:25.393Z,13.80
2018-12-19T05:32:53.798Z,14.10
2018-12-19T05:35:22.170Z,12.73
2018-12-19T05:37:50.548Z,12.37
2018-12-19T05:40:19.250Z,11.83
2018-12-19T05:42:47.598Z,14.20
2018-12-19T05:45:15.951Z,13.30
2018-12-19T05:47:44.390Z,13.80
2018-12-19T05:50:12.972Z,13.97
2018-12-19T05:52:41.372Z,13.77
2018-12-19T05:55:09.858Z,14.17
2018-12-19T05:57:38.215Z,14.53
2018-12-19T06:00:06.967Z,13.57
2018-12-19T06:02:35.539Z,13.80
2018-12-19T06:05:04.383Z,13.93
2018-12-19T06:07:32.704Z,14.60
2018-12-19T06:10:01.213Z,14.13
2018-12-19T06:12:29.536Z,14.63
2018-12-19T06:14:57.890Z,15.00
2018-12-19T06:17:26.568Z,14.33
2018-12-19T06:19:54.905Z,14.63
2018-12-19T06:22:24.079Z,14.40
2018-12-19T06:24:52.957Z,15.00
2018-12-19T06:27:21.259Z,14.10
2018-12-19T06:29:49.576Z,13.90
2018-12-19T06:32:18.082Z,14.10
2018-12-19T06:34:46.420Z,15.03
2018-12-19T06:37:14.746Z,14.60
2018-12-19T06:39:43.273Z,15.00
2018-12-19T06:42:11.600Z,14.37
2018-12-19T06:44:40.112Z,15.57
2018-12-19T06:47:08.799Z,16.20
2018-12-19T06:49:37.178Z,14.70
2018-12-19T06:52:05.496Z,14.63
2018-12-19T06:54:34.091Z,15.83
2018-12-19T06:57:02.422Z,15.50
2018-12-19T06:59:30.735Z,14.23
2018-12-19T07:01:59.674Z,14.00
2018-12-19T07:04:28.018Z,14.20
2018-12-19T07:06:56.382Z,16.27
2018-12-19T07:09:24.816Z,14.37
2018-12-19T07:11:53.105Z,14.60
2018-12-19T07:14:21.468Z,14.77
2018-12-19T07:16:50.116Z,13.27
2018-12-19T07:19:18.503Z,13.83
2018-12-19T07:21:47.003Z,12.80
2018-12-19T07:24:15.450Z,13.37
2018-12-19T07:26:43.781Z,14.00
2018-12-19T07:29:12.114Z,15.07
2018-12-19T07:31:40.824Z,14.87
2018-12-19T07:34:09.188Z,13.93
2018-12-19T07:36:37.543Z,14.57
2018-12-19T07:39:07.951Z,14.83
2018-12-19T07:41:36.354Z,16.23
2018-12-19T07:44:04.724Z,15.60
2018-12-19T07:46:33.547Z,14.87
2018-12-19T07:49:01.839Z,14.93
2018-12-19T07:51:30.216Z,14.50
2018-12-19T07:53:58.922Z,14.53
2018-12-19T07:56:27.366Z,16.07
2018-12-19T07:58:55.689Z,14.93
2018-12-19T08:01:24.396Z,13.10
2018-12-19T08:03:52.814Z,13.77
2018-12-19T08:06:21.110Z,13.23
2018-12-19T08:08:49.557Z,13.23
2018-12-19T08:11:18.186Z,13.97
2018-12-19T08:13:46.492Z,13.47
2018-12-19T08:16:15.174Z,12.37
2018-12-19T08:18:43.507Z,12.60
2018-12-19T08:21:11.824Z,13.23
2018-12-19T08:23:40.300Z,12.37
2018-12-19T08:26:08.676Z,12.33
2018-12-19T08:28:37.005Z,14.03
2018-12-19T08:31:05.482Z,13.53
2018-12-19T08:33:34.272Z,12.37
2018-12-19T08:36:02.620Z,11.70
2018-12-19T08:38:31.476Z,12.60
2018-12-19T08:40:59.787Z,12.23
2018-12-19T08:43:28.105Z,12.43
2018-12-19T08:45:56.936Z,12.43
2018-12-19T08:48:25.274Z,11.63
2018-12-19T08:50:53.618Z,12.17
2018-12-19T08:53:22.262Z,11.50
2018-12-19T08:55:50.886Z,11.20
2018-12-19T08:58:19.221Z,10.60
2018-12-19T09:00:47.667Z,10.77
2018-12-19T09:03:15.962Z,11.43
2018-12-19T09:05:44.398Z,10.00
2018-12-19T09:08:12.836Z,11.03
2018-12-19T09:10:41.157Z,10.80
2018-12-19T09:13:09.501Z,10.43
2018-12-19T09:15:43.439Z,10.27
2018-12-19T09:18:11.759Z,10.63
2018-12-19T09:20:40.147Z,10.23
2018-12-19T09:23:08.617Z,10.40
2018-12-19T09:25:36.922Z,11.07
2018-12-19T09:28:05.384Z,11.47
2018-12-19T09:30:33.781Z,10.93
2018-12-19T09:33:02.126Z,10.70
2018-12-19T09:35:30.482Z,10.27
2018-12-19T09:37:58.911Z,11.30
2018-12-19T09:40:27.261Z,11.43
2018-12-19T09:42:55.701Z,11.33
2018-12-19T09:45:24.153Z,10.67
2018-12-19T09:47:52.450Z,10.87
2018-12-19T09:50:20.787Z,10.73
2018-12-19T09:52:49.715Z,11.73
2018-12-19T09:55:18.052Z,10.67
2018-12-19T09:57:46.428Z,11.60
2018-12-19T10:00:20.189Z,11.40
2018-12-19T10:02:49.413Z,10.80
2018-12-19T10:05:16.874Z,9.47
2018-12-19T10:07:45.289Z,9.43
2018-12-19T10:10:13.666Z,10.97
2018-12-19T10:12:42.034Z,9.60
2018-12-19T10:15:10.809Z,9.70
2018-12-19T10:17:41.067Z,9.93
2018-12-19T10:20:08.665Z,10.90
2018-12-19T10:22:37.383Z,9.70
2018-12-19T10:25:11.461Z,9.57
2018-12-19T10:27:40.221Z,10.47
2018-12-19T10:30:10.746Z,10.40
2018-12-19T10:32:39.081Z,10.40
2018-12-19T10:35:08.905Z,10.97
2018-12-19T10:37:37.309Z,10.97
2018-12-19T10:40:08.857Z,10.63
2018-12-19T10:42:37.413Z,10.30
2018-12-19T10:45:08.072Z,9.43
2018-12-19T10:47:36.479Z,11.73
2018-12-19T10:50:06.672Z,10.20
2018-12-19T10:52:35.010Z,10.97
2018-12-19T10:55:07.042Z,9.53
2018-12-19T10:57:36.037Z,11.33
2018-12-19T11:00:08.478Z,9.97
2018-12-19T11:02:36.805Z,9.90
2018-12-19T11:05:05.540Z,10.07
2018-12-19T11:07:33.921Z,9.97
2018-12-19T11:10:02.246Z,10.03
2018-12-19T11:12:30.720Z,10.87
2018-12-19T11:14:59.034Z,9.63
2018-12-19T11:17:27.323Z,10.47
2018-12-19T11:19:56.110Z,9.93
2018-12-19T11:22:24.436Z,9.87
2018-12-19T11:24:52.741Z,9.67
2018-12-19T11:27:21.242Z,10.27
2018-12-19T11:29:49.552Z,10.47
2018-12-19T11:32:17.878Z,10.53
2018-12-19T11:34:46.376Z,9.67
2018-12-19T11:37:14.712Z,9.73
2018-12-19T11:39:43.039Z,9.63
2018-12-19T11:42:11.532Z,9.93
2018-12-19T11:44:39.855Z,11.00
2018-12-19T11:47:08.164Z,10.03
2018-12-19T11:49:36.814Z,10.40
2018-12-19T11:52:05.126Z,11.53
2018-12-19T11:54:33.678Z,9.97
2018-12-19T11:57:02.112Z,9.77
2018-12-19T11:59:30.425Z,10.03
2018-12-19T12:01:58.723Z,9.80
2018-12-19T12:04:27.529Z,8.87
2018-12-19T12:06:55.902Z,9.07
2018-12-19T12:09:24.271Z,9.20
2018-12-19T12:11:52.825Z,9.30
2018-12-19T12:14:21.158Z,8.97
2018-12-19T12:16:49.519Z,9.03
2018-12-19T12:19:18.387Z,9.60
2018-12-19T12:21:46.785Z,9.93
2018-12-19T12:24:15.203Z,11.13
2018-12-19T12:26:43.626Z,9.93
2018-12-19T12:29:11.917Z,10.20
2018-12-19T12:31:40.323Z,9.60
2018-12-19T12:34:08.838Z,10.83
2018-12-19T12:36:37.159Z,11.80
2018-12-19T12:39:07.743Z,10.13
2018-12-19T12:41:36.238Z,10.70
2018-12-19T12:44:04.646Z,11.90
2018-12-19T12:46:33.039Z,11.33
2018-12-19T12:49:01.702Z,10.50
2018-12-19T12:51:30.021Z,10.40
2018-12-19T12:53:58.462Z,11.47
2018-12-19T12:56:27.001Z,10.87
2018-12-19T12:58:55.324Z,11.80
2018-12-19T13:01:23.720Z,11.23
2018-12-19T13:03:52.582Z,12.23
2018-12-19T13:06:20.915Z,11.30
2018-12-19T13:08:49.330Z,11.10
2018-12-19T13:11:17.704Z,12.00
2018-12-19T13:13:45.991Z,11.90
2018-12-19T13:16:14.337Z,12.30
2018-12-19T13:18:42.750Z,12.87
2018-12-19T13:21:11.229Z,12.23
2018-12-19T13:23:39.621Z,13.50
2018-12-19T13:26:08.156Z,13.33
2018-12-19T13:28:36.609Z,13.10
2018-12-19T13:31:04.994Z,13.77
2018-12-19T13:33:33.653Z,11.87
2018-12-19T13:36:01.996Z,12.53
2018-12-19T13:38:30.455Z,13.47
2018-12-19T13:40:58.876Z,12.67
2018-12-19T13:43:27.301Z,13.30
2018-12-19T13:45:55.584Z,13.87
2018-12-19T13:48:24.068Z,12.27
2018-12-19T13:50:52.461Z,13.40
2018-12-19T13:53:20.921Z,13.30
2018-12-19T13:55:49.749Z,13.50
2018-12-19T13:58:18.127Z,12.93
2018-12-19T14:00:47.030Z,12.80
2018-12-19T14:03:15.512Z,13.70
2018-12-19T14:05:43.822Z,12.07
2018-12-19T14:08:12.130Z,11.40
2018-12-19T14:10:40.930Z,13.53
2018-12-19T14:13:09.242Z,13.73
2018-12-19T14:15:37.558Z,13.37
2018-12-19T14:18:06.062Z,12.03
2018-12-19T14:20:34.395Z,12.50
2018-12-19T14:23:02.739Z,12.40
2018-12-19T14:25:31.373Z,13.27
2018-12-19T14:27:59.726Z,13.67
2018-12-19T14:30:28.102Z,13.30
2018-12-19T14:32:56.810Z,13.80
2018-12-19T14:35:25.145Z,12.80
2018-12-19T14:37:53.700Z,14.17
2018-12-19T14:40:22.224Z,12.60
2018-12-19T14:42:50.508Z,12.37
2018-12-19T14:45:18.889Z,13.20
2018-12-19T14:47:47.823Z,13.03
2018-12-19T14:50:16.137Z,12.40
2018-12-19T14:52:44.459Z,11.47
2018-12-19T14:55:12.881Z,10.63
2018-12-19T14:57:41.196Z,12.17
2018-12-19T15:00:10.440Z,13.17
2018-12-19T15:02:38.870Z,12.23
2018-12-19T15:05:07.272Z,13.93
2018-12-19T15:07:35.643Z,11.13
2018-12-19T15:10:04.579Z,13.37
2018-12-19T15:12:32.919Z,13.00
2018-12-19T15:15:01.343Z,11.27
2018-12-19T15:17:29.812Z,13.60
2018-12-19T15:19:58.148Z,13.27
2018-12-19T15:22:26.610Z,12.73
2018-12-19T15:24:55.319Z,13.27
2018-12-19T15:27:24.002Z,14.33
2018-12-19T15:29:52.323Z,13.13
2018-12-19T15:32:20.924Z,11.77
2018-12-19T15:34:49.270Z,12.97
2018-12-19T15:37:17.626Z,13.27
2018-12-19T15:39:46.151Z,12.27
2018-12-19T15:42:14.504Z,13.47
2018-12-19T15:44:42.793Z,14.47
2018-12-19T15:47:11.225Z,14.50
2018-12-19T15:49:39.699Z,14.20
2018-12-19T15:52:08.104Z,14.90
2018-12-19T15:54:36.763Z,14.70
2018-12-19T15:57:05.163Z,15.37
2018-12-19T15:59:33.490Z,15.77
2018-12-19T16:02:01.977Z,14.23
2018-12-19T16:04:30.602Z,14.37
2018-12-19T16:06:58.923Z,14.67
2018-12-19T16:09:27.528Z,15.27
2018-12-19T16:11:55.855Z,14.43
2018-12-19T16:14:24.372Z,14.93
2018-12-19T16:16:52.967Z,14.10
2018-12-19T16:19:21.316Z,14.70
2018-12-19T16:21:49.690Z,14.17
2018-12-19T16:24:18.548Z,15.50
2018-12-19T16:26:46.927Z,14.40
2018-12-19T16:29:15.250Z,14.80
2018-12-19T16:31:43.986Z,15.50
2018-12-19T16:34:12.310Z,14.63
2018-12-19T16:36:40.684Z,16.03
2018-12-19T16:39:10.041Z,15.33
2018-12-19T16:41:38.369Z,15.07
2018-12-19T16:44:06.736Z,15.43
2018-12-19T16:46:35.173Z,14.73
2018-12-19T16:49:03.504Z,16.53
2018-12-19T16:51:31.827Z,15.23
2018-12-19T16:54:00.279Z,15.70
2018-12-19T16:56:28.687Z,17.10
2018-12-19T16:58:57.066Z,16.43
2018-12-19T17:01:26.052Z,18.43
2018-12-19T17:03:54.342Z,17.70
2018-12-19T17:06:22.704Z,16.87
2018-12-19T17:08:51.379Z,17.47
2018-12-19T17:11:19.733Z,19.83
2018-12-19T17:13:48.075Z,18.17
2018-12-19T17:16:16.822Z,18.70
2018-12-19T17:18:45.319Z,19.37
2018-12-19T17:21:13.902Z,20.63
2018-12-19T17:23:43.240Z,21.50
2018-12-19T17:26:11.769Z,20.23
2018-12-19T17:28:40.459Z,17.87
2018-12-19T17:31:09.516Z,19.00
2018-12-19T17:33:38.527Z,18.50
2018-12-19T17:36:07.531Z,17.40
2018-12-19T17:38:36.756Z,20.47
2018-12-19T17:41:05.828Z,18.87
2018-12-19T17:43:34.924Z,18.77
2018-12-19T17:46:04.148Z,18.17
2018-12-19T17:48:33.174Z,18.90
2018-12-19T17:51:02.135Z,18.73
2018-12-19T17:53:30.833Z,18.83
2018-12-19T17:55:59.453Z,16.43
2018-12-19T17:58:28.231Z,17.53
2018-12-19T18:00:57.563Z,18.27
2018-12-19T18:03:26.246Z,18.17
2018-12-19T18:05:54.828Z,18.17
2018-12-19T18:08:23.472Z,17.97
2018-12-19T18:10:52.302Z,17.93
2018-12-19T18:13:20.928Z,18.27
2018-12-19T18:15:49.983Z,18.67
2018-12-19T18:18:18.809Z,19.13
2018-12-19T18:20:47.563Z,17.63
2018-12-19T18:23:17.424Z,19.10
2018-12-19T18:25:46.087Z,18.90
2018-12-19T18:28:14.648Z,17.27
2018-12-19T18:30:43.428Z,18.10
2018-12-19T18:33:12.212Z,16.17
2018-12-19T18:35:41.134Z,14.70
2018-12-19T18:38:09.964Z,18.03
2018-12-19T18:40:38.630Z,16.60
2018-12-19T18:43:12.931Z,17.57
2018-12-19T18:45:36.257Z,16.13
2018-12-19T18:48:04.877Z,16.70
2018-12-19T18:50:33.680Z,17.77
2018-12-19T18:53:02.696Z,16.53
2018-12-19T18:55:31.662Z,16.77
2018-12-19T18:58:00.459Z,16.67
2018-12-19T19:00:36.976Z,17.20
2018-12-19T19:03:05.736Z,18.17
2018-12-19T19:05:34.499Z,17.50
2018-12-19T19:08:03.426Z,17.70
2018-12-19T19:10:32.176Z,17.57
2018-12-19T19:13:00.904Z,16.70
2018-12-19T19:15:29.739Z,17.70
2018-12-19T19:17:58.569Z,17.50
2018-12-19T19:20:27.295Z,17.63
2018-12-19T19:22:56.184Z,18.57
2018-12-19T19:25:24.991Z,21.03
2018-12-19T19:27:53.723Z,19.70
2018-12-19T19:30:22.978Z,20.10
2018-12-19T19:32:52.428Z,20.27
2018-12-19T19:35:21.364Z,18.87
2018-12-19T19:37:50.565Z,19.10
2018-12-19T19:40:19.414Z,19.63
2018-12-19T19:42:48.180Z,18.53
2018-12-19T19:45:17.247Z,20.23
2018-12-19T19:47:46.084Z,18.27
2018-12-19T19:50:14.951Z,20.93
2018-12-19T19:52:43.935Z,20.50
2018-12-19T19:55:12.644Z,21.43
2018-12-19T19:57:41.636Z,22.00
2018-12-19T20:00:11.814Z,23.17
2018-12-19T20:02:40.543Z,22.80
2018-12-19T20:05:09.534Z,22.97
2018-12-19T20:07:38.923Z,24.23
2018-12-19T20:10:07.919Z,24.17
2018-12-19T20:12:36.691Z,23.67
2018-12-19T20:15:06.316Z,25.40
2018-12-19T20:17:35.366Z,23.37
2018-12-19T20:20:04.199Z,25.20
2018-12-19T20:22:33.343Z,24.83
2018-12-19T20:25:02.147Z,25.13
2018-12-19T20:27:31.092Z,24.33
2018-12-19T20:30:00.314Z,25.43
2018-12-19T20:32:29.067Z,24.87
2018-12-19T20:34:58.077Z,27.53
2018-12-19T20:37:27.441Z,24.77
2018-12-19T20:39:56.192Z,25.40
2018-12-19T20:42:24.910Z,26.60
2018-12-19T20:44:53.822Z,27.63
2018-12-19T20:47:22.592Z,27.07
2018-12-19T20:49:51.468Z,28.93
2018-12-19T20:52:20.471Z,28.20
2018-12-19T20:54:49.181Z,29.30
2018-12-19T20:57:17.881Z,29.73
2018-12-19T20:59:46.984Z,30.33
2018-12-19T21:02:15.739Z,27.43
2018-12-19T21:04:44.467Z,28.97
2018-12-19T21:07:13.395Z,30.50
2018-12-19T21:09:42.641Z,31.37
2018-12-19T21:12:11.433Z,30.03
2018-12-19T21:14:40.295Z,32.57
2018-12-19T21:17:14.397Z,29.77
2018-12-19T21:19:43.681Z,25.67
2018-12-19T21:22:12.488Z,28.93
2018-12-19T21:24:41.645Z,33.37
2018-12-19T21:27:10.836Z,32.40
2018-12-19T21:29:39.558Z,33.43
2018-12-19T21:32:08.299Z,29.67
2018-12-19T21:34:37.168Z,29.43
2018-12-19T21:37:06.010Z,31.20
2018-12-19T21:39:34.752Z,30.80
2018-12-19T21:42:03.995Z,33.13
2018-12-19T21:44:32.748Z,32.43
2018-12-19T21:47:01.206Z,29.63
2018-12-19T21:49:30.062Z,33.77
2018-12-19T21:51:58.391Z,28.93
2018-12-19T21:54:26.722Z,28.80
2018-12-19T21:56:55.214Z,28.13
2018-12-19T21:59:23.580Z,29.27
2018-12-19T22:01:51.960Z,29.70
2018-12-19T22:04:20.493Z,27.27
2018-12-19T22:06:48.850Z,30.73
2018-12-19T22:09:17.243Z,31.63
2018-12-19T22:11:45.702Z,29.50
2018-12-19T22:14:14.090Z,27.60
2018-12-19T22:16:47.949Z,27.10
2018-12-19T22:19:16.265Z,29.67
2018-12-19T22:21:44.793Z,30.53
2018-12-19T22:24:13.477Z,32.27
2018-12-19T22:26:41.870Z,29.47
2018-12-19T22:29:10.164Z,36.70
2018-12-19T22:31:38.773Z,37.17
2018-12-19T22:34:07.081Z,37.67
2018-12-19T22:36:35.439Z,35.50
2018-12-19T22:39:05.205Z,36.77
2018-12-19T22:41:33.697Z,46.03
2018-12-19T22:44:07.915Z,42.90
2018-12-19T22:46:30.617Z,50.30
2018-12-19T22:48:59.069Z,53.30
2018-12-19T22:51:27.399Z,53.37
2018-12-19T22:53:56.022Z,49.17
2018-12-19T22:56:24.411Z,51.97
2018-12-19T22:58:52.706Z,43.60
2018-12-19T23:01:26.675Z,45.50
2018-12-19T23:04:00.463Z,42.00
2018-12-19T23:06:28.858Z,42.33
2018-12-19T23:08:57.482Z,41.20
2018-12-19T23:11:25.858Z,44.97
2018-12-19T23:13:54.251Z,45.80
2018-12-19T23:16:22.569Z,43.13
2018-12-19T23:18:50.905Z,41.90
2018-12-19T23:21:19.616Z,42.37
2018-12-19T23:23:48.112Z,48.27
2018-12-19T23:26:16.432Z,49.60
2018-12-19T23:28:45.088Z,45.97
2018-12-19T23:31:13.368Z,44.33
2018-12-19T23:33:41.699Z,43.47
2018-12-19T23:36:10.482Z,43.80
2018-12-19T23:38:38.769Z,43.80
2018-12-19T23:41:07.106Z,41.27
2018-12-19T23:43:35.998Z,44.67
2018-12-19T23:46:04.350Z,35.97
2018-12-19T23:48:32.697Z,38.33
2018-12-19T23:51:01.300Z,41.07
2018-12-19T23:53:29.778Z,39.07
2018-12-19T23:55:58.105Z,38.57
2018-12-19T23:58:26.950Z,38.23
